sensor_id;sensor_type;location;lat;lon;timestamp;pressure;altitude;pressure_sealevel;temperature;humidity
59367;BME280;45163;47.690;11.770;2022-12-29T00:01:37;93343.97;;;-0.08;100.00
59367;BME280;45163;47.690;11.770;2022-12-29T00:04:04;93343.22;;;-0.08;100.00
59367;BME280;45163;47.690;11.770;2022-12-29T00:06:31;93337.84;;;-0.08;100.00
59367;BME280;45163;47.690;11.770;2022-12-29T00:08:57;93341.25;;;-0.11;100.00
59367;BME280;45163;47.690;11.770;2022-12-29T00:11:25;93338.56;;;-0.11;100.00
59367;BME280;45163;47.690;11.770;2022-12-29T00:13:52;93327.38;;;-0.17;100.00
59367;BME280;45163;47.690;11.770;2022-12-29T00:16:41;93320.75;;;-0.27;100.00
59367;BME280;45163;47.690;11.770;2022-12-29T00:19:07;93310.63;;;-0.40;100.00
59367;BME280;45163;47.690;11.770;2022-12-29T00:21:53;93319.34;;;-0.47;100.00
59367;BME280;45163;47.690;11.770;2022-12-29T00:24:37;93303.97;;;-0.54;100.00
59367;BME280;45163;47.690;11.770;2022-12-29T00:27:22;93315.31;;;-0.64;100.00
59367;BME280;45163;47.690;11.770;2022-12-29T00:30:15;93296.84;;;-0.39;100.00
59367;BME280;45163;47.690;11.770;2022-12-29T00:33:00;93302.75;;;-0.26;100.00
59367;BME280;45163;47.690;11.770;2022-12-29T00:35:53;93287.13;;;-0.20;100.00
59367;BME280;45163;47.690;11.770;2022-12-29T00:38:20;93291.16;;;0.00;100.00
59367;BME280;45163;47.690;11.770;2022-12-29T00:41:05;93292.66;;;0.35;100.00
59367;BME280;45163;47.690;11.770;2022-12-29T00:43:49;93293.50;;;0.46;100.00
59367;BME280;45163;47.690;11.770;2022-12-29T00:46:34;93278.50;;;0.41;100.00
59367;BME280;45163;47.690;11.770;2022-12-29T00:49:01;93270.72;;;0.29;100.00
59367;BME280;45163;47.690;11.770;2022-12-29T00:51:47;93271.44;;;0.22;100.00
59367;BME280;45163;47.690;11.770;2022-12-29T00:54:13;93272.59;;;0.25;100.00
59367;BME280;45163;47.690;11.770;2022-12-29T00:56:40;93269.22;;;0.32;100.00
59367;BME280;45163;47.690;11.770;2022-12-29T00:59:10;93264.75;;;0.46;100.00
59367;BME280;45163;47.690;11.770;2022-12-29T01:01:37;93262.06;;;0.50;100.00
59367;BME280;45163;47.690;11.770;2022-12-29T01:04:04;93264.72;;;0.43;100.00
59367;BME280;45163;47.690;11.770;2022-12-29T01:06:31;93254.53;;;0.66;100.00
59367;BME280;45163;47.690;11.770;2022-12-29T01:08:58;93256.41;;;0.62;100.00
59367;BME280;45163;47.690;11.770;2022-12-29T01:11:42;93244.41;;;1.04;100.00
59367;BME280;45163;47.690;11.770;2022-12-29T01:14:08;93253.84;;;1.49;100.00
59367;BME280;45163;47.690;11.770;2022-12-29T01:16:34;93245.00;;;1.49;100.00
59367;BME280;45163;47.690;11.770;2022-12-29T01:19:03;93251.03;;;1.21;100.00
59367;BME280;45163;47.690;11.770;2022-12-29T01:21:29;93257.34;;;0.88;100.00
59367;BME280;45163;47.690;11.770;2022-12-29T01:23:55;93267.50;;;0.57;100.00
59367;BME280;45163;47.690;11.770;2022-12-29T01:26:21;93274.66;;;0.39;100.00
59367;BME280;45163;47.690;11.770;2022-12-29T01:28:47;93266.97;;;0.37;100.00
59367;BME280;45163;47.690;11.770;2022-12-29T01:31:14;93270.78;;;0.36;100.00
59367;BME280;45163;47.690;11.770;2022-12-29T01:33:42;93285.25;;;0.21;100.00
59367;BME280;45163;47.690;11.770;2022-12-29T01:36:15;93284.03;;;0.15;100.00
59367;BME280;45163;47.690;11.770;2022-12-29T01:38:42;93271.28;;;0.05;100.00
59367;BME280;45163;47.690;11.770;2022-12-29T01:41:10;93269.72;;;0.04;100.00
59367;BME280;45163;47.690;11.770;2022-12-29T01:43:47;93272.41;;;0.04;100.00
59367;BME280;45163;47.690;11.770;2022-12-29T01:51:26;93272.28;;;-0.11;100.00
59367;BME280;45163;47.690;11.770;2022-12-29T01:53:56;93271.84;;;-0.16;100.00
59367;BME280;45163;47.690;11.770;2022-12-29T01:56:25;93271.38;;;-0.22;100.00
59367;BME280;45163;47.690;11.770;2022-12-29T01:58:57;93280.44;;;-0.34;100.00
59367;BME280;45163;47.690;11.770;2022-12-29T02:01:26;93275.78;;;-0.40;100.00
59367;BME280;45163;47.690;11.770;2022-12-29T02:03:52;93294.91;;;-0.42;100.00
59367;BME280;45163;47.690;11.770;2022-12-29T02:06:22;93284.34;;;-0.28;100.00
59367;BME280;45163;47.690;11.770;2022-12-29T02:08:51;93279.38;;;-0.29;100.00
59367;BME280;45163;47.690;11.770;2022-12-29T02:11:19;93277.31;;;-0.39;100.00
59367;BME280;45163;47.690;11.770;2022-12-29T02:13:45;93270.22;;;-0.24;100.00
59367;BME280;45163;47.690;11.770;2022-12-29T02:19:08;93261.66;;;-0.34;100.00
59367;BME280;45163;47.690;11.770;2022-12-29T02:38:14;93258.63;;;-0.32;100.00
59367;BME280;45163;47.690;11.770;2022-12-29T02:43:56;93253.69;;;-0.27;100.00
59367;BME280;45163;47.690;11.770;2022-12-29T02:46:35;93259.69;;;-0.40;100.00
59367;BME280;45163;47.690;11.770;2022-12-29T02:49:18;93258.41;;;-0.54;100.00
59367;BME280;45163;47.690;11.770;2022-12-29T02:54:17;93264.28;;;-0.74;100.00
59367;BME280;45163;47.690;11.770;2022-12-29T02:57:02;93262.94;;;-0.58;100.00
59367;BME280;45163;47.690;11.770;2022-12-29T02:59:28;93263.53;;;-0.41;100.00
59367;BME280;45163;47.690;11.770;2022-12-29T03:04:51;93264.75;;;-0.32;100.00
59367;BME280;45163;47.690;11.770;2022-12-29T03:16:04;93245.81;;;-0.12;100.00
59367;BME280;45163;47.690;11.770;2022-12-29T03:18:39;93237.25;;;-0.25;100.00
59367;BME280;45163;47.690;11.770;2022-12-29T03:23:48;93237.13;;;-0.36;100.00
59367;BME280;45163;47.690;11.770;2022-12-29T03:26:16;93240.19;;;-0.37;100.00
59367;BME280;45163;47.690;11.770;2022-12-29T03:28:53;93235.94;;;-0.38;100.00
59367;BME280;45163;47.690;11.770;2022-12-29T03:31:22;93241.28;;;-0.42;100.00
59367;BME280;45163;47.690;11.770;2022-12-29T03:33:50;93235.66;;;-0.30;100.00
59367;BME280;45163;47.690;11.770;2022-12-29T03:36:27;93247.25;;;-0.22;100.00
59367;BME280;45163;47.690;11.770;2022-12-29T03:39:00;93243.59;;;-0.03;100.00
59367;BME280;45163;47.690;11.770;2022-12-29T03:41:30;93252.34;;;0.31;100.00
59367;BME280;45163;47.690;11.770;2022-12-29T03:43:57;93235.97;;;0.43;100.00
59367;BME280;45163;47.690;11.770;2022-12-29T03:46:23;93237.13;;;0.49;100.00
59367;BME280;45163;47.690;11.770;2022-12-29T03:48:49;93236.19;;;0.28;100.00
59367;BME280;45163;47.690;11.770;2022-12-29T03:51:15;93234.88;;;0.07;100.00
59367;BME280;45163;47.690;11.770;2022-12-29T03:53:41;93239.75;;;-0.06;100.00
59367;BME280;45163;47.690;11.770;2022-12-29T03:56:07;93250.69;;;-0.21;100.00
59367;BME280;45163;47.690;11.770;2022-12-29T03:58:33;93256.59;;;-0.42;100.00
59367;BME280;45163;47.690;11.770;2022-12-29T04:00:59;93248.16;;;-0.44;100.00
59367;BME280;45163;47.690;11.770;2022-12-29T04:03:25;93238.41;;;-0.22;100.00
59367;BME280;45163;47.690;11.770;2022-12-29T04:05:51;93231.66;;;-0.09;100.00
59367;BME280;45163;47.690;11.770;2022-12-29T04:08:17;93225.06;;;-0.19;100.00
59367;BME280;45163;47.690;11.770;2022-12-29T04:10:43;93229.22;;;-0.25;100.00
59367;BME280;45163;47.690;11.770;2022-12-29T04:13:09;93231.91;;;-0.21;100.00
59367;BME280;45163;47.690;11.770;2022-12-29T04:15:35;93235.22;;;-0.35;100.00
59367;BME280;45163;47.690;11.770;2022-12-29T04:18:01;93239.63;;;-0.54;100.00
59367;BME280;45163;47.690;11.770;2022-12-29T04:20:27;93230.78;;;-0.58;100.00
59367;BME280;45163;47.690;11.770;2022-12-29T04:23:12;93243.56;;;-0.78;100.00
59367;BME280;45163;47.690;11.770;2022-12-29T04:25:38;93243.28;;;-0.99;100.00
59367;BME280;45163;47.690;11.770;2022-12-29T04:28:04;93238.16;;;-1.11;100.00
59367;BME280;45163;47.690;11.770;2022-12-29T04:30:30;93247.78;;;-1.07;100.00
59367;BME280;45163;47.690;11.770;2022-12-29T04:32:55;93254.44;;;-0.93;100.00
59367;BME280;45163;47.690;11.770;2022-12-29T04:35:21;93251.63;;;-1.04;100.00
59367;BME280;45163;47.690;11.770;2022-12-29T04:38:00;93255.63;;;-0.91;100.00
59367;BME280;45163;47.690;11.770;2022-12-29T04:40:26;93245.75;;;-0.87;100.00
59367;BME280;45163;47.690;11.770;2022-12-29T04:42:52;93248.41;;;-0.87;100.00
59367;BME280;45163;47.690;11.770;2022-12-29T04:45:18;93249.81;;;-0.66;100.00
59367;BME280;45163;47.690;11.770;2022-12-29T04:47:44;93248.16;;;-0.44;100.00
59367;BME280;45163;47.690;11.770;2022-12-29T04:50:10;93245.44;;;-0.48;100.00
59367;BME280;45163;47.690;11.770;2022-12-29T04:52:36;93239.25;;;-0.52;100.00
59367;BME280;45163;47.690;11.770;2022-12-29T04:55:03;93239.69;;;-0.46;100.00
59367;BME280;45163;47.690;11.770;2022-12-29T04:57:29;93240.91;;;-0.40;100.00
59367;BME280;45163;47.690;11.770;2022-12-29T04:59:55;93243.88;;;-0.15;100.00
59367;BME280;45163;47.690;11.770;2022-12-29T05:02:21;93240.28;;;0.11;100.00
59367;BME280;45163;47.690;11.770;2022-12-29T05:04:47;93230.78;;;0.20;100.00
59367;BME280;45163;47.690;11.770;2022-12-29T05:07:13;93227.38;;;0.27;100.00
59367;BME280;45163;47.690;11.770;2022-12-29T05:09:39;93217.91;;;0.40;100.00
59367;BME280;45163;47.690;11.770;2022-12-29T05:12:06;93222.78;;;0.28;100.00
59367;BME280;45163;47.690;11.770;2022-12-29T05:14:32;93221.69;;;0.36;100.00
59367;BME280;45163;47.690;11.770;2022-12-29T05:16:58;93215.97;;;0.41;100.00
59367;BME280;45163;47.690;11.770;2022-12-29T05:19:24;93226.69;;;0.37;100.00
59367;BME280;45163;47.690;11.770;2022-12-29T05:21:49;93225.47;;;0.28;100.00
59367;BME280;45163;47.690;11.770;2022-12-29T05:24:15;93213.53;;;0.21;100.00
59367;BME280;45163;47.690;11.770;2022-12-29T05:26:41;93200.47;;;0.20;100.00
59367;BME280;45163;47.690;11.770;2022-12-29T05:29:07;93216.66;;;0.27;100.00
59367;BME280;45163;47.690;11.770;2022-12-29T05:31:33;93209.47;;;0.38;100.00
59367;BME280;45163;47.690;11.770;2022-12-29T05:34:01;93206.00;;;0.41;100.00
59367;BME280;45163;47.690;11.770;2022-12-29T05:36:27;93188.00;;;0.42;100.00
59367;BME280;45163;47.690;11.770;2022-12-29T05:38:53;93194.97;;;0.54;100.00
59367;BME280;45163;47.690;11.770;2022-12-29T05:41:19;93195.19;;;0.86;100.00
59367;BME280;45163;47.690;11.770;2022-12-29T05:43:45;93188.34;;;1.03;100.00
59367;BME280;45163;47.690;11.770;2022-12-29T05:46:11;93185.34;;;1.15;100.00
59367;BME280;45163;47.690;11.770;2022-12-29T05:48:37;93182.00;;;1.43;100.00
59367;BME280;45163;47.690;11.770;2022-12-29T05:51:03;93168.50;;;1.29;100.00
59367;BME280;45163;47.690;11.770;2022-12-29T05:53:29;93156.53;;;1.15;100.00
59367;BME280;45163;47.690;11.770;2022-12-29T05:55:55;93179.53;;;1.06;100.00
59367;BME280;45163;47.690;11.770;2022-12-29T05:58:21;93168.41;;;1.07;100.00
59367;BME280;45163;47.690;11.770;2022-12-29T06:00:47;93176.13;;;1.19;100.00
59367;BME280;45163;47.690;11.770;2022-12-29T06:03:13;93151.66;;;1.53;100.00
59367;BME280;45163;47.690;11.770;2022-12-29T06:05:39;93163.59;;;1.56;100.00
59367;BME280;45163;47.690;11.770;2022-12-29T06:08:05;93158.53;;;1.33;100.00
59367;BME280;45163;47.690;11.770;2022-12-29T06:10:30;93156.94;;;1.24;100.00
59367;BME280;45163;47.690;11.770;2022-12-29T06:12:56;93144.63;;;1.09;100.00
59367;BME280;45163;47.690;11.770;2022-12-29T06:15:22;93155.25;;;0.84;100.00
59367;BME280;45163;47.690;11.770;2022-12-29T06:17:48;93148.66;;;0.71;100.00
59367;BME280;45163;47.690;11.770;2022-12-29T06:20:14;93150.84;;;0.51;100.00
59367;BME280;45163;47.690;11.770;2022-12-29T06:22:40;93161.06;;;0.31;100.00
59367;BME280;45163;47.690;11.770;2022-12-29T06:25:06;93159.94;;;0.32;100.00
59367;BME280;45163;47.690;11.770;2022-12-29T06:27:33;93161.84;;;0.32;100.00
59367;BME280;45163;47.690;11.770;2022-12-29T06:29:59;93156.50;;;0.35;100.00
59367;BME280;45163;47.690;11.770;2022-12-29T06:32:26;93140.78;;;0.37;100.00
59367;BME280;45163;47.690;11.770;2022-12-29T06:34:52;93156.88;;;0.37;100.00
59367;BME280;45163;47.690;11.770;2022-12-29T06:37:18;93154.22;;;0.41;100.00
59367;BME280;45163;47.690;11.770;2022-12-29T06:39:43;93150.84;;;0.51;100.00
59367;BME280;45163;47.690;11.770;2022-12-29T06:42:09;93153.09;;;0.45;100.00
59367;BME280;45163;47.690;11.770;2022-12-29T06:44:35;93139.34;;;0.54;100.00
59367;BME280;45163;47.690;11.770;2022-12-29T06:47:01;93143.59;;;0.55;100.00
59367;BME280;45163;47.690;11.770;2022-12-29T06:49:27;93147.09;;;0.66;100.00
59367;BME280;45163;47.690;11.770;2022-12-29T06:51:53;93148.00;;;0.88;100.00
59367;BME280;45163;47.690;11.770;2022-12-29T06:54:19;93156.91;;;1.10;100.00
59367;BME280;45163;47.690;11.770;2022-12-29T06:56:45;93145.34;;;0.99;100.00
59367;BME280;45163;47.690;11.770;2022-12-29T06:59:11;93143.81;;;0.98;100.00
59367;BME280;45163;47.690;11.770;2022-12-29T07:01:37;93129.19;;;0.92;100.00
59367;BME280;45163;47.690;11.770;2022-12-29T07:04:03;93137.25;;;0.95;100.00
59367;BME280;45163;47.690;11.770;2022-12-29T07:06:29;93146.84;;;0.89;100.00
59367;BME280;45163;47.690;11.770;2022-12-29T07:08:55;93144.84;;;0.79;100.00
59367;BME280;45163;47.690;11.770;2022-12-29T07:11:23;93146.81;;;0.86;100.00
59367;BME280;45163;47.690;11.770;2022-12-29T07:13:49;93144.91;;;0.90;100.00
59367;BME280;45163;47.690;11.770;2022-12-29T07:16:15;93154.94;;;1.04;100.00
59367;BME280;45163;47.690;11.770;2022-12-29T07:18:42;93160.75;;;1.09;100.00
59367;BME280;45163;47.690;11.770;2022-12-29T07:21:07;93148.44;;;1.08;100.00
59367;BME280;45163;47.690;11.770;2022-12-29T07:23:33;93149.94;;;0.98;100.00
59367;BME280;45163;47.690;11.770;2022-12-29T07:26:05;93153.00;;;0.93;100.00
59367;BME280;45163;47.690;11.770;2022-12-29T07:28:32;93167.28;;;1.15;100.00
59367;BME280;45163;47.690;11.770;2022-12-29T07:30:58;93168.16;;;1.41;100.00
59367;BME280;45163;47.690;11.770;2022-12-29T07:33:25;93155.13;;;1.54;100.00
59367;BME280;45163;47.690;11.770;2022-12-29T07:35:51;93168.59;;;1.64;100.00
59367;BME280;45163;47.690;11.770;2022-12-29T07:38:17;93170.16;;;1.80;100.00
59367;BME280;45163;47.690;11.770;2022-12-29T07:40:43;93160.97;;;1.84;100.00
59367;BME280;45163;47.690;11.770;2022-12-29T07:43:09;93162.88;;;1.91;100.00
59367;BME280;45163;47.690;11.770;2022-12-29T07:45:35;93160.97;;;2.27;100.00
59367;BME280;45163;47.690;11.770;2022-12-29T07:48:00;93175.22;;;2.31;100.00
59367;BME280;45163;47.690;11.770;2022-12-29T07:50:28;93176.72;;;2.21;100.00
59367;BME280;45163;47.690;11.770;2022-12-29T07:52:54;93182.91;;;2.11;100.00
59367;BME280;45163;47.690;11.770;2022-12-29T07:55:20;93181.72;;;2.09;100.00
59367;BME280;45163;47.690;11.770;2022-12-29T07:57:46;93176.72;;;2.00;100.00
59367;BME280;45163;47.690;11.770;2022-12-29T08:00:12;93190.19;;;2.07;100.00
59367;BME280;45163;47.690;11.770;2022-12-29T08:02:38;93193.66;;;2.15;100.00
59367;BME280;45163;47.690;11.770;2022-12-29T08:05:05;93186.38;;;2.22;100.00
59367;BME280;45163;47.690;11.770;2022-12-29T08:07:31;93181.00;;;2.26;100.00
59367;BME280;45163;47.690;11.770;2022-12-29T08:09:57;93183.66;;;2.33;100.00
59367;BME280;45163;47.690;11.770;2022-12-29T08:12:23;93193.28;;;2.45;100.00
59367;BME280;45163;47.690;11.770;2022-12-29T08:14:49;93185.97;;;2.45;100.00
59367;BME280;45163;47.690;11.770;2022-12-29T08:17:15;93178.63;;;2.74;100.00
59367;BME280;45163;47.690;11.770;2022-12-29T08:19:41;93193.63;;;2.79;100.00
59367;BME280;45163;47.690;11.770;2022-12-29T08:22:08;93208.66;;;2.77;100.00
59367;BME280;45163;47.690;11.770;2022-12-29T08:24:34;93192.47;;;2.91;100.00
59367;BME280;45163;47.690;11.770;2022-12-29T08:27:00;93201.31;;;3.02;100.00
59367;BME280;45163;47.690;11.770;2022-12-29T08:29:26;93210.16;;;3.03;100.00
59367;BME280;45163;47.690;11.770;2022-12-29T08:31:52;93205.13;;;3.15;100.00
59367;BME280;45163;47.690;11.770;2022-12-29T08:34:18;93199.72;;;3.19;100.00
59367;BME280;45163;47.690;11.770;2022-12-29T08:36:44;93193.53;;;3.25;100.00
59367;BME280;45163;47.690;11.770;2022-12-29T08:39:10;93194.25;;;3.33;100.00
59367;BME280;45163;47.690;11.770;2022-12-29T08:41:36;93202.34;;;3.33;100.00
59367;BME280;45163;47.690;11.770;2022-12-29T08:44:02;93206.13;;;3.57;100.00
59367;BME280;45163;47.690;11.770;2022-12-29T08:46:28;93206.13;;;3.61;100.00
59367;BME280;45163;47.690;11.770;2022-12-29T08:48:54;93192.22;;;3.66;100.00
59367;BME280;45163;47.690;11.770;2022-12-29T08:51:20;93203.41;;;3.68;100.00
59367;BME280;45163;47.690;11.770;2022-12-29T08:53:46;93202.22;;;3.72;100.00
59367;BME280;45163;47.690;11.770;2022-12-29T08:56:12;93206.75;;;3.86;100.00
59367;BME280;45163;47.690;11.770;2022-12-29T08:58:38;93214.09;;;3.89;100.00
59367;BME280;45163;47.690;11.770;2022-12-29T09:01:04;93212.06;;;4.00;100.00
59367;BME280;45163;47.690;11.770;2022-12-29T09:03:30;93212.50;;;3.92;100.00
59367;BME280;45163;47.690;11.770;2022-12-29T09:05:56;93212.88;;;3.97;100.00
59367;BME280;45163;47.690;11.770;2022-12-29T09:08:22;93212.06;;;4.04;100.00
59367;BME280;45163;47.690;11.770;2022-12-29T09:10:49;93228.63;;;4.10;100.00
59367;BME280;45163;47.690;11.770;2022-12-29T09:13:15;93225.09;;;4.20;100.00
59367;BME280;45163;47.690;11.770;2022-12-29T09:15:42;93221.63;;;4.16;100.00
59367;BME280;45163;47.690;11.770;2022-12-29T09:18:09;93233.22;;;4.13;100.00
59367;BME280;45163;47.690;11.770;2022-12-29T09:20:36;93231.69;;;4.15;100.00
59367;BME280;45163;47.690;11.770;2022-12-29T09:23:03;93227.75;;;4.27;100.00
59367;BME280;45163;47.690;11.770;2022-12-29T09:25:29;93231.09;;;4.42;100.00
59367;BME280;45163;47.690;11.770;2022-12-29T09:27:55;93238.72;;;4.58;100.00
59367;BME280;45163;47.690;11.770;2022-12-29T09:30:22;93235.44;;;4.81;100.00
59367;BME280;45163;47.690;11.770;2022-12-29T09:32:49;93235.59;;;5.08;100.00
59367;BME280;45163;47.690;11.770;2022-12-29T09:35:15;93230.47;;;5.55;100.00
59367;BME280;45163;47.690;11.770;2022-12-29T09:37:43;93227.50;;;5.76;100.00
59367;BME280;45163;47.690;11.770;2022-12-29T09:40:28;93222.72;;;5.87;100.00
59367;BME280;45163;47.690;11.770;2022-12-29T09:45:44;93218.06;;;5.57;100.00
59367;BME280;45163;47.690;11.770;2022-12-29T09:48:18;93216.13;;;5.58;100.00
59367;BME280;45163;47.690;11.770;2022-12-29T09:50:50;93214.59;;;5.57;100.00
59367;BME280;45163;47.690;11.770;2022-12-29T09:53:26;93207.44;;;5.73;100.00
59367;BME280;45163;47.690;11.770;2022-12-29T09:55:58;93217.56;;;5.66;100.00
59367;BME280;45163;47.690;11.770;2022-12-29T09:58:34;93206.91;;;5.52;100.00
59367;BME280;45163;47.690;11.770;2022-12-29T10:01:07;93213.72;;;5.63;100.00
59367;BME280;45163;47.690;11.770;2022-12-29T10:03:46;93212.22;;;5.93;100.00
59367;BME280;45163;47.690;11.770;2022-12-29T10:08:57;93193.84;;;6.08;100.00
59367;BME280;45163;47.690;11.770;2022-12-29T10:20:13;93186.78;;;6.41;100.00
59367;BME280;45163;47.690;11.770;2022-12-29T10:25:37;93180.50;;;6.71;100.00
59367;BME280;45163;47.690;11.770;2022-12-29T10:28:14;93179.97;;;6.80;100.00
59367;BME280;45163;47.690;11.770;2022-12-29T10:30:43;93175.41;;;6.96;100.00
59367;BME280;45163;47.690;11.770;2022-12-29T10:33:17;93175.34;;;7.23;100.00
59367;BME280;45163;47.690;11.770;2022-12-29T10:35:45;93170.66;;;7.44;100.00
59367;BME280;45163;47.690;11.770;2022-12-29T10:40:58;93173.38;;;7.84;100.00
59367;BME280;45163;47.690;11.770;2022-12-29T10:43:33;93168.25;;;8.06;100.00
59367;BME280;45163;47.690;11.770;2022-12-29T10:46:09;93170.34;;;8.34;100.00
59367;BME280;45163;47.690;11.770;2022-12-29T10:48:36;93175.06;;;8.66;100.00
59367;BME280;45163;47.690;11.770;2022-12-29T10:51:05;93166.06;;;8.53;100.00
59367;BME280;45163;47.690;11.770;2022-12-29T10:53:39;93165.47;;;8.78;100.00
59367;BME280;45163;47.690;11.770;2022-12-29T10:56:38;93162.50;;;9.18;100.00
59367;BME280;45163;47.690;11.770;2022-12-29T10:59:10;93151.53;;;10.05;99.47
59367;BME280;45163;47.690;11.770;2022-12-29T11:01:58;93143.66;;;11.31;100.00
59367;BME280;45163;47.690;11.770;2022-12-29T11:07:20;93129.66;;;13.89;89.01
59367;BME280;45163;47.690;11.770;2022-12-29T11:09:47;93129.47;;;14.54;83.45
59367;BME280;45163;47.690;11.770;2022-12-29T11:12:24;93129.84;;;15.04;75.54
59367;BME280;45163;47.690;11.770;2022-12-29T11:17:47;93126.34;;;14.28;66.42
59367;BME280;45163;47.690;11.770;2022-12-29T11:22:52;93114.13;;;12.14;66.31
59367;BME280;45163;47.690;11.770;2022-12-29T11:25:18;93121.81;;;11.97;67.90
59367;BME280;45163;47.690;11.770;2022-12-29T11:28:02;93120.72;;;11.51;72.64
59367;BME280;45163;47.690;11.770;2022-12-29T11:30:31;93114.75;;;11.65;75.63
59367;BME280;45163;47.690;11.770;2022-12-29T11:32:58;93114.41;;;11.41;71.95
59367;BME280;45163;47.690;11.770;2022-12-29T11:35:40;93094.66;;;10.80;75.13
59367;BME280;45163;47.690;11.770;2022-12-29T11:38:19;93091.22;;;10.41;79.28
59367;BME280;45163;47.690;11.770;2022-12-29T11:40:46;93097.34;;;10.45;81.84
59367;BME280;45163;47.690;11.770;2022-12-29T11:46:00;93093.84;;;10.45;80.82
59367;BME280;45163;47.690;11.770;2022-12-29T11:48:33;93094.41;;;10.27;84.20
59367;BME280;45163;47.690;11.770;2022-12-29T11:51:03;93096.22;;;10.05;84.37
59367;BME280;45163;47.690;11.770;2022-12-29T11:56:01;93089.69;;;10.40;84.21
59367;BME280;45163;47.690;11.770;2022-12-29T11:58:33;93079.28;;;10.61;76.98
59367;BME280;45163;47.690;11.770;2022-12-29T12:01:23;93082.31;;;10.76;73.00
59367;BME280;45163;47.690;11.770;2022-12-29T12:04:11;93074.06;;;10.03;79.93
59367;BME280;45163;47.690;11.770;2022-12-29T12:06:47;93080.28;;;9.23;82.80
59367;BME280;45163;47.690;11.770;2022-12-29T12:09:21;93084.94;;;8.64;88.69
59367;BME280;45163;47.690;11.770;2022-12-29T12:11:52;93071.84;;;8.27;92.83
59367;BME280;45163;47.690;11.770;2022-12-29T12:14:34;93067.44;;;8.16;90.11
59367;BME280;45163;47.690;11.770;2022-12-29T12:17:09;93069.94;;;7.74;93.54
59367;BME280;45163;47.690;11.770;2022-12-29T12:19:47;93062.78;;;7.64;95.52
59367;BME280;45163;47.690;11.770;2022-12-29T12:25:18;93059.13;;;7.55;95.33
59367;BME280;45163;47.690;11.770;2022-12-29T12:30:53;93050.63;;;7.53;96.33
59367;BME280;45163;47.690;11.770;2022-12-29T12:33:39;93055.00;;;7.66;95.33
59367;BME280;45163;47.690;11.770;2022-12-29T12:45:02;93042.34;;;9.58;95.32
59367;BME280;45163;47.690;11.770;2022-12-29T12:50:22;93030.72;;;11.56;77.76
59367;BME280;45163;47.690;11.770;2022-12-29T12:58:44;93027.88;;;12.50;66.37
59367;BME280;45163;47.690;11.770;2022-12-29T13:09:10;93033.78;;;10.92;72.64
59367;BME280;45163;47.690;11.770;2022-12-29T13:16:54;93032.47;;;8.64;88.69
59367;BME280;45163;47.690;11.770;2022-12-29T13:19:27;93029.69;;;8.35;90.52
59367;BME280;45163;47.690;11.770;2022-12-29T13:30:57;93034.19;;;7.04;100.00
59367;BME280;45163;47.690;11.770;2022-12-29T13:36:03;93034.47;;;7.09;100.00
59367;BME280;45163;47.690;11.770;2022-12-29T13:38:33;93034.66;;;7.18;100.00
59367;BME280;45163;47.690;11.770;2022-12-29T13:41:14;93038.44;;;7.05;100.00
59367;BME280;45163;47.690;11.770;2022-12-29T13:43:43;93049.97;;;6.89;100.00
59367;BME280;45163;47.690;11.770;2022-12-29T13:46:15;93038.00;;;6.66;100.00
59367;BME280;45163;47.690;11.770;2022-12-29T13:49:20;93038.34;;;6.68;100.00
59367;BME280;45163;47.690;11.770;2022-12-29T13:51:51;93036.28;;;6.76;100.00
59367;BME280;45163;47.690;11.770;2022-12-29T13:54:39;93033.28;;;6.70;100.00
59367;BME280;45163;47.690;11.770;2022-12-29T13:57:51;93036.38;;;6.49;100.00
59367;BME280;45163;47.690;11.770;2022-12-29T14:00:18;93039.00;;;6.33;100.00
59367;BME280;45163;47.690;11.770;2022-12-29T14:07:43;93039.59;;;6.20;100.00
59367;BME280;45163;47.690;11.770;2022-12-29T14:10:36;93040.34;;;6.21;100.00
59367;BME280;45163;47.690;11.770;2022-12-29T14:13:13;93042.13;;;6.08;100.00
59367;BME280;45163;47.690;11.770;2022-12-29T14:15:45;93049.19;;;6.02;100.00
59367;BME280;45163;47.690;11.770;2022-12-29T14:18:13;93053.84;;;6.01;100.00
59367;BME280;45163;47.690;11.770;2022-12-29T14:21:00;93048.78;;;6.03;100.00
59367;BME280;45163;47.690;11.770;2022-12-29T14:28:40;93042.88;;;6.08;100.00
59367;BME280;45163;47.690;11.770;2022-12-29T14:36:35;93042.53;;;5.79;100.00
59367;BME280;45163;47.690;11.770;2022-12-29T14:39:02;93045.34;;;5.72;100.00
59367;BME280;45163;47.690;11.770;2022-12-29T14:41:32;93048.69;;;5.56;100.00
59367;BME280;45163;47.690;11.770;2022-12-29T14:44:19;93051.19;;;5.43;100.00
59367;BME280;45163;47.690;11.770;2022-12-29T14:47:06;93041.22;;;5.37;100.00
59367;BME280;45163;47.690;11.770;2022-12-29T14:49:40;93042.06;;;5.30;100.00
59367;BME280;45163;47.690;11.770;2022-12-29T14:52:21;93036.69;;;5.27;100.00
59367;BME280;45163;47.690;11.770;2022-12-29T14:57:39;93029.38;;;5.27;100.00
59367;BME280;45163;47.690;11.770;2022-12-29T15:00:21;93032.94;;;5.20;100.00
59367;BME280;45163;47.690;11.770;2022-12-29T15:08:31;93026.44;;;5.14;100.00
59367;BME280;45163;47.690;11.770;2022-12-29T15:11:06;93028.44;;;5.10;100.00
59367;BME280;45163;47.690;11.770;2022-12-29T15:13:39;93029.31;;;5.00;100.00
59367;BME280;45163;47.690;11.770;2022-12-29T15:16:24;93024.34;;;4.98;100.00
59367;BME280;45163;47.690;11.770;2022-12-29T15:18:50;93033.69;;;4.90;100.00
59367;BME280;45163;47.690;11.770;2022-12-29T15:21:25;93017.94;;;4.85;100.00
59367;BME280;45163;47.690;11.770;2022-12-29T15:23:52;93029.13;;;4.84;100.00
59367;BME280;45163;47.690;11.770;2022-12-29T15:26:18;93040.72;;;4.84;100.00
59367;BME280;45163;47.690;11.770;2022-12-29T15:28:51;93040.38;;;4.82;100.00
59367;BME280;45163;47.690;11.770;2022-12-29T15:31:19;93047.75;;;4.78;100.00
59367;BME280;45163;47.690;11.770;2022-12-29T15:33:47;93044.84;;;4.62;100.00